Terminal Aerodrome Forecast
Issued by NWS Austin/San Antonio, TX

Home | Current Version | Previous Version | Text Only | Print | Product List | Glossary On
Versions: 1 2 3 4 5 6 7 8 9 10 11 12 13 14 15 16 17 18 19 20 21 22 23
844
FTUS44 KEWX 250538
TAFAUS
TAF
KAUS 250538Z 2506/2612 16008KT P6SM FEW200
     FM250900 18003KT P6SM BKN012
      TEMPO 2511/2513 BKN008
     FM251400 19005KT P6SM SCT012 BKN020
     FM251500 19008KT P6SM SCT020 BKN040
     FM251600 16008KT P6SM SCT040 BKN250
     FM260000 13007KT P6SM BKN250
     FM260800 14003KT P6SM BKN012=

USA.gov is the U.S. government's official web portal to all federal, state and local government web resources and services.